Time;durP1;ratioP1;P1;durP2;ratioP2;P2;SDS_P1;SDS_P2;PMS_P1;PMS_P2;Temp;Humidity;BMP_temperature;BMP_pressure;BME280_temperature;BME280_humidity;BME280_pressure;Samples;Min_cycle;Max_cycle;Signal;HPM_P1;HPM_P2
2021/12/04 00:00:23;;;;;;;9.73;4.90;;;;;;;;;;5005915;28;20485;-74
2021/12/04 00:02:50;;;;;;;9.32;4.50;;;;;;;;;;4990797;28;20050;-74
2021/12/04 00:05:17;;;;;;;10.48;4.78;;;;;;;;;;4990971;28;20026;-74
2021/12/04 00:07:43;;;;;;;9.43;4.43;;;;;;;;;;4990855;28;20065;-74
2021/12/04 00:10:16;;;;;;;9.57;4.75;;;;;;;;;;4989455;28;20039;-74
2021/12/04 00:12:42;;;;;;;11.48;4.75;;;;;;;;;;4991047;28;20046;-73
2021/12/04 00:15:08;;;;;;;9.05;4.80;;;;;;;;;;4990956;28;20501;-75
2021/12/04 00:17:35;;;;;;;8.13;4.50;;;;;;;;;;4991097;28;20062;-74
2021/12/04 00:20:06;;;;;;;11.00;4.97;;;;;;;;;;4990699;28;20061;-74
2021/12/04 00:22:32;;;;;;;9.23;4.95;;;;;;;;;;4990478;28;20046;-74
2021/12/04 00:24:58;;;;;;;7.88;4.57;;;;;;;;;;4991798;28;20377;-74
2021/12/04 00:27:24;;;;;;;11.57;5.40;;;;;;;;;;4995144;28;20043;-74
2021/12/04 00:29:50;;;;;;;10.57;5.10;;;;;;;;;;4993390;28;20105;-74
2021/12/04 00:32:27;;;;;;;11.32;5.00;;;;;;;;;;4993625;28;20106;-74
2021/12/04 00:35:08;;;;;;;8.52;4.78;;;;;;;;;;4994685;28;20481;-74
2021/12/04 00:51:24;;;;;;;10.27;5.60;;;;;;;;;;4994825;28;20049;-73
2021/12/04 00:53:54;;;;;;;11.30;5.47;;;;;;;;;;4993694;28;20042;-73
2021/12/04 00:56:21;;;;;;;12.27;5.80;;;;;;;;;;4993856;28;20050;-74
2021/12/04 00:58:47;;;;;;;10.48;5.43;;;;;;;;;;4994228;28;20522;-74
2021/12/04 01:01:15;;;;;;;12.13;5.35;;;;;;;;;;5009105;28;20062;-74
2021/12/04 01:03:41;;;;;;;10.18;5.43;;;;;;;;;;4994414;28;20039;-73
2021/12/04 01:06:07;;;;;;;12.18;5.57;;;;;;;;;;4993975;28;20065;-73
2021/12/04 01:08:34;;;;;;;10.95;5.63;;;;;;;;;;4993754;28;20046;-73
2021/12/04 01:11:02;;;;;;;10.52;5.55;;;;;;;;;;4994075;28;20400;-74
2021/12/04 01:13:29;;;;;;;8.40;5.07;;;;;;;;;;4993905;28;20477;-74
2021/12/04 01:15:55;;;;;;;11.18;5.20;;;;;;;;;;5009105;28;20033;-75
2021/12/04 01:18:21;;;;;;;10.30;4.55;;;;;;;;;;4994192;28;20039;-74
2021/12/04 01:20:47;;;;;;;8.98;5.20;;;;;;;;;;4994260;28;20026;-74
2021/12/04 01:23:16;;;;;;;9.95;5.25;;;;;;;;;;4992367;28;20034;-74
2021/12/04 01:25:43;;;;;;;10.70;4.57;;;;;;;;;;4994082;28;20039;-74
2021/12/04 01:28:09;;;;;;;9.48;5.03;;;;;;;;;;4992748;28;20416;-74
2021/12/04 01:30:35;;;;;;;9.23;4.68;;;;;;;;;;4993755;28;20039;-74
2021/12/04 01:33:01;;;;;;;9.07;5.03;;;;;;;;;;4993705;28;20058;-74
2021/12/04 01:35:27;;;;;;;10.10;5.25;;;;;;;;;;4993298;28;20050;-75
2021/12/04 01:37:53;;;;;;;9.20;5.03;;;;;;;;;;4991387;28;20046;-74
2021/12/04 01:40:20;;;;;;;9.68;4.90;;;;;;;;;;4993653;28;20055;-74
2021/12/04 01:42:46;;;;;;;8.68;4.80;;;;;;;;;;4993376;28;20481;-75
2021/12/04 01:45:13;;;;;;;11.90;5.45;;;;;;;;;;4993229;28;20038;-75
2021/12/04 01:47:39;;;;;;;12.02;5.63;;;;;;;;;;4993395;28;20042;-75
2021/12/04 01:50:09;;;;;;;10.13;5.60;;;;;;;;;;4993093;28;20093;-74
2021/12/04 01:52:35;;;;;;;13.07;5.90;;;;;;;;;;4992552;28;20054;-75
2021/12/04 01:55:01;;;;;;;10.68;5.40;;;;;;;;;;4992410;28;20045;-75
2021/12/04 01:57:27;;;;;;;9.63;5.38;;;;;;;;;;4992642;28;20066;-75
2021/12/04 01:59:53;;;;;;;13.80;5.60;;;;;;;;;;4992655;28;20034;-75
2021/12/04 02:02:19;;;;;;;14.48;5.63;;;;;;;;;;4992625;28;20092;-75
2021/12/04 02:04:46;;;;;;;10.82;5.68;;;;;;;;;;4992667;28;20113;-74
2021/12/04 02:07:13;;;;;;;9.75;5.57;;;;;;;;;;4992710;28;20042;-75
2021/12/04 02:09:39;;;;;;;12.23;5.05;;;;;;;;;;4992821;28;20049;-75
2021/12/04 02:12:07;;;;;;;12.90;5.22;;;;;;;;;;4992485;28;20524;-75
2021/12/04 02:14:35;;;;;;;8.02;4.68;;;;;;;;;;5007013;28;20042;-74
2021/12/04 02:17:01;;;;;;;11.15;4.72;;;;;;;;;;4992589;28;20030;-74
2021/12/04 02:19:28;;;;;;;9.35;5.00;;;;;;;;;;4991072;28;20044;-74
2021/12/04 02:21:54;;;;;;;11.20;5.88;;;;;;;;;;4992297;28;20049;-74
2021/12/04 02:24:20;;;;;;;8.75;5.20;;;;;;;;;;4992398;28;20042;-75
2021/12/04 02:26:47;;;;;;;10.18;5.47;;;;;;;;;;4992192;28;20034;-75
2021/12/04 02:29:13;;;;;;;12.68;5.65;;;;;;;;;;4991204;28;20030;-75
2021/12/04 02:31:39;;;;;;;11.80;5.90;;;;;;;;;;4992523;28;20061;-73
2021/12/04 02:34:06;;;;;;;10.13;5.85;;;;;;;;;;4992549;28;20038;-73
2021/12/04 02:36:32;;;;;;;10.18;5.63;;;;;;;;;;4992137;28;20401;-73
2021/12/04 02:38:58;;;;;;;12.60;6.20;;;;;;;;;;4991039;28;20038;-73
2021/12/04 02:41:24;;;;;;;9.38;5.60;;;;;;;;;;4991872;28;20072;-73
2021/12/04 02:43:50;;;;;;;11.40;5.80;;;;;;;;;;4992040;28;20384;-73
2021/12/04 02:46:17;;;;;;;11.50;5.97;;;;;;;;;;4991516;28;20038;-73
2021/12/04 02:48:45;;;;;;;12.15;6.15;;;;;;;;;;4991096;28;20023;-73
2021/12/04 02:51:11;;;;;;;12.32;5.95;;;;;;;;;;4991834;28;20046;-73
2021/12/04 02:53:38;;;;;;;10.98;6.28;;;;;;;;;;4991824;28;20046;-74
2021/12/04 02:56:05;;;;;;;13.50;6.80;;;;;;;;;;4991364;28;20484;-73
2021/12/04 02:58:34;;;;;;;10.57;6.00;;;;;;;;;;4991450;28;20042;-74
2021/12/04 03:01:02;;;;;;;8.75;5.43;;;;;;;;;;4991556;28;20042;-74
2021/12/04 03:03:29;;;;;;;11.80;5.32;;;;;;;;;;4991552;28;20045;-74
2021/12/04 03:05:56;;;;;;;10.65;5.43;;;;;;;;;;4991187;28;20520;-74
2021/12/04 03:08:24;;;;;;;10.43;5.53;;;;;;;;;;4991213;28;20046;-74
2021/12/04 03:10:51;;;;;;;9.45;5.55;;;;;;;;;;4990889;28;20230;-74
2021/12/04 03:13:19;;;;;;;13.05;6.25;;;;;;;;;;4989983;28;20046;-74
2021/12/04 03:15:49;;;;;;;12.50;6.20;;;;;;;;;;4991173;28;20046;-74
2021/12/04 03:18:15;;;;;;;13.82;6.25;;;;;;;;;;4991241;28;20138;-74
2021/12/04 03:20:45;;;;;;;13.20;5.95;;;;;;;;;;4991623;28;20384;-75
2021/12/04 03:23:19;;;;;;;12.60;6.95;;;;;;;;;;4991346;28;20042;-74
2021/12/04 03:25:48;;;;;;;11.30;6.03;;;;;;;;;;4990187;28;20031;-74
2021/12/04 03:28:16;;;;;;;13.05;5.95;;;;;;;;;;4991525;28;20046;-74
2021/12/04 03:30:47;;;;;;;12.23;5.97;;;;;;;;;;4991403;28;20061;-74
2021/12/04 03:41:17;;;;;;;14.05;6.93;;;;;;;;;;4990853;28;20030;-74
2021/12/04 03:43:44;;;;;;;15.98;7.30;;;;;;;;;;4990407;28;20058;-73
2021/12/04 03:46:13;;;;;;;12.57;6.65;;;;;;;;;;4990850;28;20030;-73
2021/12/04 03:48:50;;;;;;;14.55;7.07;;;;;;;;;;4991045;28;20038;-73
2021/12/04 03:51:17;;;;;;;14.88;7.38;;;;;;;;;;4990771;28;20469;-73
2021/12/04 03:53:43;;;;;;;14.50;7.32;;;;;;;;;;4990956;28;20601;-73
2021/12/04 03:56:11;;;;;;;12.73;7.57;;;;;;;;;;4990715;28;20042;-73
2021/12/04 03:58:37;;;;;;;12.90;7.63;;;;;;;;;;4990564;28;20042;-73
2021/12/04 04:01:03;;;;;;;15.07;7.72;;;;;;;;;;4993301;28;20042;-73
2021/12/04 04:03:29;;;;;;;18.83;8.25;;;;;;;;;;4994303;28;20046;-73
2021/12/04 04:05:55;;;;;;;15.70;7.30;;;;;;;;;;4994717;28;20034;-73
2021/12/04 04:08:21;;;;;;;21.85;7.63;;;;;;;;;;4994365;28;20045;-73
2021/12/04 04:10:50;;;;;;;16.15;7.55;;;;;;;;;;4993728;28;20038;-74
2021/12/04 04:13:15;;;;;;;17.75;7.53;;;;;;;;;;4994429;28;20053;-74
2021/12/04 04:15:41;;;;;;;17.77;7.55;;;;;;;;;;4994541;28;20038;-73
2021/12/04 04:18:08;;;;;;;14.45;7.65;;;;;;;;;;4994250;28;20436;-73
2021/12/04 04:20:34;;;;;;;13.70;7.43;;;;;;;;;;4994442;28;20045;-73
2021/12/04 04:23:00;;;;;;;14.73;7.65;;;;;;;;;;4992916;28;20448;-73
2021/12/04 04:25:26;;;;;;;13.35;7.28;;;;;;;;;;4994364;28;20034;-73
2021/12/04 04:27:51;;;;;;;14.18;7.10;;;;;;;;;;4992904;28;20038;-74
2021/12/04 04:30:19;;;;;;;14.23;7.10;;;;;;;;;;4994275;28;20117;-73
2021/12/04 04:32:47;;;;;;;12.38;6.85;;;;;;;;;;4993518;28;20129;-73
2021/12/04 04:35:20;;;;;;;13.75;7.00;;;;;;;;;;4994085;28;20439;-73
2021/12/04 05:15:20;;;;;;;13.45;7.68;;;;;;;;;;4993740;28;20037;-74
2021/12/04 05:20:37;;;;;;;16.42;8.45;;;;;;;;;;4993770;28;20500;-73
2021/12/04 05:23:03;;;;;;;16.38;9.25;;;;;;;;;;4992384;28;20061;-73
2021/12/04 05:25:30;;;;;;;23.55;10.57;;;;;;;;;;4993724;28;20038;-74
2021/12/04 05:27:57;;;;;;;21.40;10.73;;;;;;;;;;4993589;28;20035;-73
2021/12/04 05:30:23;;;;;;;19.17;10.85;;;;;;;;;;4993529;28;20388;-73
2021/12/04 05:32:49;;;;;;;23.58;11.07;;;;;;;;;;4993075;28;20070;-74
2021/12/04 05:35:15;;;;;;;20.95;10.80;;;;;;;;;;4993098;28;20069;-74
2021/12/04 05:37:40;;;;;;;23.30;11.73;;;;;;;;;;4993731;28;20039;-73
2021/12/04 05:40:10;;;;;;;23.00;11.40;;;;;;;;;;4993508;28;20357;-74
2021/12/04 05:42:36;;;;;;;24.48;11.75;;;;;;;;;;4993360;28;20031;-74
2021/12/04 05:45:04;;;;;;;25.48;11.90;;;;;;;;;;4993339;28;20030;-74
2021/12/04 05:47:42;;;;;;;24.38;12.55;;;;;;;;;;4993514;28;20495;-74
2021/12/04 05:53:14;;;;;;;26.45;11.50;;;;;;;;;;4996620;28;20476;-74
2021/12/04 05:55:56;;;;;;;26.10;12.68;;;;;;;;;;4993116;28;20049;-74
2021/12/04 05:58:32;;;;;;;27.42;12.48;;;;;;;;;;4992772;28;20046;-73
2021/12/04 06:01:01;;;;;;;27.88;13.40;;;;;;;;;;4992766;28;20477;-74
2021/12/04 06:03:27;;;;;;;30.73;14.02;;;;;;;;;;4993257;28;20399;-74
2021/12/04 06:05:53;;;;;;;33.45;13.88;;;;;;;;;;4993002;28;20045;-73
2021/12/04 06:08:19;;;;;;;34.35;14.30;;;;;;;;;;4992795;28;20512;-75
2021/12/04 06:10:47;;;;;;;32.55;14.80;;;;;;;;;;4992995;28;20046;-72
2021/12/04 06:13:14;;;;;;;30.83;13.25;;;;;;;;;;4991070;28;20156;-75
2021/12/04 06:15:40;;;;;;;30.77;14.85;;;;;;;;;;4991470;28;20468;-76
2021/12/04 06:18:08;;;;;;;29.30;13.73;;;;;;;;;;4991368;28;20070;-74
2021/12/04 06:23:23;;;;;;;30.05;14.20;;;;;;;;;;4992547;28;20038;-74
2021/12/04 06:25:50;;;;;;;32.38;14.45;;;;;;;;;;4992767;28;20041;-75
2021/12/04 06:28:16;;;;;;;30.45;14.73;;;;;;;;;;4992658;28;20022;-75
2021/12/04 06:30:43;;;;;;;36.28;15.60;;;;;;;;;;4992673;28;20041;-75
2021/12/04 06:33:12;;;;;;;28.60;13.65;;;;;;;;;;4992521;28;20034;-74
2021/12/04 06:35:41;;;;;;;28.92;13.63;;;;;;;;;;4992427;28;20043;-74
2021/12/04 06:38:12;;;;;;;34.60;14.88;;;;;;;;;;4991982;28;20365;-74
2021/12/04 06:40:39;;;;;;;31.10;14.32;;;;;;;;;;4991395;28;20038;-75
2021/12/04 06:43:06;;;;;;;34.13;15.50;;;;;;;;;;4992180;28;20469;-74
2021/12/04 06:45:34;;;;;;;33.95;14.90;;;;;;;;;;4991977;28;20045;-74
2021/12/04 06:48:18;;;;;;;36.28;14.88;;;;;;;;;;4991699;28;20510;-75
2021/12/04 06:51:23;;;;;;;33.35;14.40;;;;;;;;;;4992650;28;20054;-75
2021/12/04 06:54:00;;;;;;;36.22;15.73;;;;;;;;;;4991298;28;20045;-75
2021/12/04 06:56:33;;;;;;;35.67;15.35;;;;;;;;;;4991830;28;20050;-75
2021/12/04 06:59:02;;;;;;;33.42;15.02;;;;;;;;;;4991582;28;20042;-75
2021/12/04 07:01:28;;;;;;;36.00;14.48;;;;;;;;;;4991657;28;20050;-74
2021/12/04 07:03:54;;;;;;;35.72;14.27;;;;;;;;;;4992087;28;20066;-75
2021/12/04 07:06:20;;;;;;;32.05;14.75;;;;;;;;;;4991915;28;20037;-74
2021/12/04 07:08:46;;;;;;;36.50;15.73;;;;;;;;;;5006571;28;20078;-75
2021/12/04 07:11:12;;;;;;;33.85;15.13;;;;;;;;;;4991780;28;20436;-74
2021/12/04 07:13:38;;;;;;;33.30;14.93;;;;;;;;;;4992207;28;20118;-75
2021/12/04 07:16:06;;;;;;;38.33;15.60;;;;;;;;;;4991693;28;20061;-75
2021/12/04 07:18:33;;;;;;;30.30;15.77;;;;;;;;;;4991143;28;20039;-75
2021/12/04 07:20:59;;;;;;;30.05;13.73;;;;;;;;;;4991926;28;20034;-75
2021/12/04 07:23:25;;;;;;;33.45;15.15;;;;;;;;;;4991087;28;20042;-74
2021/12/04 07:25:51;;;;;;;29.95;14.75;;;;;;;;;;4991206;28;20572;-76
2021/12/04 07:28:17;;;;;;;32.20;15.15;;;;;;;;;;4991636;28;20034;-74
2021/12/04 07:30:43;;;;;;;28.13;13.30;;;;;;;;;;4991422;28;20042;-74
2021/12/04 07:33:09;;;;;;;33.47;14.88;;;;;;;;;;4991591;28;20042;-74
2021/12/04 07:35:35;;;;;;;30.52;15.30;;;;;;;;;;4989870;28;20156;-75
2021/12/04 07:38:01;;;;;;;28.90;13.98;;;;;;;;;;4991202;28;20045;-74
2021/12/04 07:40:27;;;;;;;29.10;14.40;;;;;;;;;;4991756;28;20037;-74
2021/12/04 07:42:53;;;;;;;28.48;13.07;;;;;;;;;;4991142;28;20038;-74
2021/12/04 07:45:19;;;;;;;30.35;16.05;;;;;;;;;;4987309;28;20046;-74
2021/12/04 07:47:46;;;;;;;28.35;13.82;;;;;;;;;;5017174;28;20054;-75
2021/12/04 07:50:16;;;;;;;34.25;17.67;;;;;;;;;;5013926;28;20046;-76
2021/12/04 07:52:42;;;;;;;53.22;26.88;;;;;;;;;;5000248;28;20400;-75
2021/12/04 07:55:09;;;;;;;46.72;24.42;;;;;;;;;;4999766;28;20104;-75
2021/12/04 07:57:35;;;;;;;37.00;16.52;;;;;;;;;;5000164;28;20030;-75
2021/12/04 08:00:05;;;;;;;37.72;16.95;;;;;;;;;;5001963;28;20034;-75
2021/12/04 08:02:31;;;;;;;31.40;15.13;;;;;;;;;;4999396;28;20038;-74
2021/12/04 08:04:57;;;;;;;30.63;15.68;;;;;;;;;;4991723;28;20058;-74
2021/12/04 08:07:23;;;;;;;28.30;15.00;;;;;;;;;;4990981;28;20138;-74
2021/12/04 08:09:49;;;;;;;31.60;15.80;;;;;;;;;;4996984;28;20069;-75
2021/12/04 08:12:15;;;;;;;30.48;15.63;;;;;;;;;;5002856;28;20526;-75
2021/12/04 08:14:42;;;;;;;32.78;16.80;;;;;;;;;;5002375;28;20097;-75
2021/12/04 08:17:08;;;;;;;40.60;19.65;;;;;;;;;;5010438;28;20388;-73
2021/12/04 08:19:34;;;;;;;35.78;17.42;;;;;;;;;;5003712;28;20035;-77
2021/12/04 08:22:00;;;;;;;37.13;16.70;;;;;;;;;;4990698;28;20403;-77
2021/12/04 08:24:26;;;;;;;34.90;15.05;;;;;;;;;;4985414;28;20053;-80
2021/12/04 08:26:52;;;;;;;36.70;16.63;;;;;;;;;;4990044;28;20050;-83
2021/12/04 08:29:18;;;;;;;36.88;15.82;;;;;;;;;;4972661;28;20038;-80
2021/12/04 08:31:46;;;;;;;38.67;17.40;;;;;;;;;;4995434;28;20419;-81
2021/12/04 08:34:13;;;;;;;42.53;16.80;;;;;;;;;;4995758;28;20049;-86
2021/12/04 08:36:39;;;;;;;44.53;19.00;;;;;;;;;;4998927;28;20362;-81
2021/12/04 08:39:05;;;;;;;39.70;17.02;;;;;;;;;;4992109;28;20385;-80
2021/12/04 08:41:32;;;;;;;37.35;17.20;;;;;;;;;;4991714;28;20488;-83
2021/12/04 08:43:58;;;;;;;34.58;15.43;;;;;;;;;;5001735;28;20488;-82
2021/12/04 08:46:24;;;;;;;35.63;16.02;;;;;;;;;;4995415;28;20045;-84
2021/12/04 08:48:52;;;;;;;35.15;15.68;;;;;;;;;;4995444;28;20034;-81
2021/12/04 08:51:21;;;;;;;33.65;15.93;;;;;;;;;;5015677;28;20049;-80
2021/12/04 08:53:52;;;;;;;35.13;15.30;;;;;;;;;;5014455;28;20046;-81
2021/12/04 08:56:18;;;;;;;36.83;15.77;;;;;;;;;;5015278;28;20036;-80
2021/12/04 08:58:45;;;;;;;34.88;15.70;;;;;;;;;;5019716;28;20052;-79
2021/12/04 09:01:22;;;;;;;34.92;16.08;;;;;;;;;;5006035;28;20034;-79
2021/12/04 09:03:48;;;;;;;32.95;15.20;;;;;;;;;;4995358;28;20046;-81
2021/12/04 09:06:18;;;;;;;32.35;15.20;;;;;;;;;;5004938;28;20440;-78
2021/12/04 09:08:44;;;;;;;32.08;14.98;;;;;;;;;;5011416;28;20050;-72
2021/12/04 09:11:15;;;;;;;32.95;16.48;;;;;;;;;;5011893;28;20038;-72
2021/12/04 09:13:42;;;;;;;31.58;15.30;;;;;;;;;;5001562;28;20378;-73
2021/12/04 09:16:10;;;;;;;32.70;16.83;;;;;;;;;;4992889;28;20394;-78
2021/12/04 09:18:36;;;;;;;33.80;15.30;;;;;;;;;;4993276;28;20408;-76
2021/12/04 09:21:05;;;;;;;27.67;14.15;;;;;;;;;;4992146;28;20054;-78
2021/12/04 09:23:37;;;;;;;29.60;14.35;;;;;;;;;;4993037;28;20164;-78
2021/12/04 09:26:04;;;;;;;30.80;15.00;;;;;;;;;;4993442;28;20050;-79
2021/12/04 09:31:56;;;;;;;26.83;13.10;;;;;;;;;;4998666;28;20140;-79
2021/12/04 09:34:24;;;;;;;23.38;12.57;;;;;;;;;;4987409;28;20053;-78
2021/12/04 10:11:15;;;;;;;29.85;13.55;;;;;;;;;;5008627;28;20031;-79
2021/12/04 10:34:58;;;;;;;30.50;14.43;;;;;;;;;;4977417;28;20388;-79
2021/12/04 10:37:27;;;;;;;30.67;13.63;;;;;;;;;;4993027;28;20479;-78
2021/12/04 10:40:03;;;;;;;32.85;14.18;;;;;;;;;;4992853;28;20495;-80
2021/12/04 10:42:43;;;;;;;31.50;14.60;;;;;;;;;;4992918;28;20464;-80
2021/12/04 10:45:09;;;;;;;27.55;13.75;;;;;;;;;;4992705;28;20429;-78
2021/12/04 10:47:36;;;;;;;32.90;14.13;;;;;;;;;;4992876;28;20409;-80
2021/12/04 10:50:26;;;;;;;32.15;14.18;;;;;;;;;;4992532;28;20029;-80
2021/12/04 10:52:58;;;;;;;28.13;13.43;;;;;;;;;;4992652;28;20046;-79
2021/12/04 10:55:34;;;;;;;31.45;13.82;;;;;;;;;;4992794;28;20493;-80
2021/12/04 11:03:43;;;;;;;29.08;13.60;;;;;;;;;;4992297;28;20043;-79
2021/12/04 11:44:33;;;;;;;35.42;16.30;;;;;;;;;;4991668;28;20030;-80
2021/12/04 11:46:59;;;;;;;35.10;14.38;;;;;;;;;;4991589;28;20034;-79
2021/12/04 11:49:30;;;;;;;39.50;14.20;;;;;;;;;;4991637;28;20523;-78
2021/12/04 11:52:01;;;;;;;35.83;15.15;;;;;;;;;;4989407;28;20046;-77
2021/12/04 11:54:31;;;;;;;34.90;15.30;;;;;;;;;;4991389;28;20404;-78
2021/12/04 11:57:08;;;;;;;34.92;15.30;;;;;;;;;;4991348;28;20038;-78
2021/12/04 11:59:36;;;;;;;32.33;15.20;;;;;;;;;;4991260;28;20572;-77
2021/12/04 12:02:06;;;;;;;32.50;14.45;;;;;;;;;;4991112;28;20461;-80
2021/12/04 12:04:35;;;;;;;37.42;15.88;;;;;;;;;;4991102;28;20035;-78
2021/12/04 12:07:12;;;;;;;43.00;15.77;;;;;;;;;;4990933;28;20050;-76
2021/12/04 12:09:39;;;;;;;42.28;16.52;;;;;;;;;;4996155;28;20030;-77
2021/12/04 12:12:08;;;;;;;39.90;15.82;;;;;;;;;;5005712;28;20564;-77
2021/12/04 12:14:55;;;;;;;42.08;15.10;;;;;;;;;;5001612;28;20030;-77
2021/12/04 12:17:37;;;;;;;39.03;15.45;;;;;;;;;;5019525;28;20017;-86
2021/12/04 12:20:06;;;;;;;;;;;;;;;;;;5001861;28;20035;-87
2021/12/04 12:22:44;;;;;;;37.67;14.82;;;;;;;;;;5007374;28;19913;-85
2021/12/04 12:25:32;;;;;;;39.53;15.15;;;;;;;;;;5022781;28;20030;-86
2021/12/04 12:36:15;;;;;;;35.58;16.05;;;;;;;;;;4998739;28;20034;-86
2021/12/04 12:38:58;;;;;;;39.47;16.38;;;;;;;;;;4998562;28;20022;-84
2021/12/04 12:41:38;;;;;;;35.50;15.40;;;;;;;;;;4995863;28;20034;-84
2021/12/04 12:44:24;;;;;;;36.30;15.23;;;;;;;;;;4990805;28;20026;-84
2021/12/04 12:46:53;;;;;;;36.00;16.25;;;;;;;;;;4996729;28;20054;-86
2021/12/04 12:49:24;;;;;;;36.25;14.45;;;;;;;;;;5001402;28;20022;-87
2021/12/04 12:52:15;;;;;;;32.95;14.68;;;;;;;;;;4997512;28;20057;-87
2021/12/04 12:55:06;;;;;;;36.28;15.90;;;;;;;;;;4998221;28;20046;-88
2021/12/04 12:57:39;;;;;;;38.80;16.05;;;;;;;;;;4988647;28;20038;-85
2021/12/04 13:11:41;;;;;;;32.60;14.15;;;;;;;;;;5000077;28;20026;-85
2021/12/04 13:14:36;;;;;;;35.67;13.38;;;;;;;;;;4993344;28;20034;-84
2021/12/04 13:17:10;;;;;;;37.08;14.32;;;;;;;;;;4991449;28;20061;-81
2021/12/04 13:19:39;;;;;;;34.25;14.68;;;;;;;;;;4994433;28;20061;-85
2021/12/04 13:22:09;;;;;;;34.25;15.13;;;;;;;;;;4987150;28;20026;-84
2021/12/04 13:24:37;;;;;;;35.53;14.02;;;;;;;;;;4989450;28;20092;-84
2021/12/04 13:29:40;;;;;;;61.17;29.38;;;;;;;;;;4993438;28;20023;-84
2021/12/04 13:32:08;;;;;;;40.50;18.77;;;;;;;;;;5009365;28;20034;-84
2021/12/04 13:34:37;;;;;;;34.97;14.90;;;;;;;;;;4998020;28;20045;-81
2021/12/04 13:37:04;;;;;;;37.63;14.38;;;;;;;;;;4997721;28;20034;-80
2021/12/04 13:39:31;;;;;;;31.92;14.20;;;;;;;;;;4997627;28;20042;-80
2021/12/04 13:41:58;;;;;;;28.83;12.77;;;;;;;;;;4997516;28;20030;-84
2021/12/04 13:44:26;;;;;;;30.73;13.65;;;;;;;;;;4995778;28;20034;-82
2021/12/04 13:47:03;;;;;;;30.25;13.48;;;;;;;;;;4991999;28;20046;-82
2021/12/04 13:49:40;;;;;;;34.30;13.73;;;;;;;;;;4993476;28;20481;-79
2021/12/04 13:52:11;;;;;;;35.75;14.88;;;;;;;;;;4997260;28;20481;-85
2021/12/04 13:54:45;;;;;;;41.33;14.65;;;;;;;;;;5002632;28;20471;-87
2021/12/04 13:57:13;;;;;;;31.25;14.82;;;;;;;;;;4997743;28;20046;-87
2021/12/04 13:59:39;;;;;;;34.35;14.43;;;;;;;;;;5001982;28;20038;-83
2021/12/04 14:02:06;;;;;;;32.55;14.25;;;;;;;;;;4997804;28;20034;-81
2021/12/04 14:04:32;;;;;;;41.40;15.65;;;;;;;;;;4995217;28;20039;-86
2021/12/04 14:07:02;;;;;;;38.25;15.20;;;;;;;;;;4991987;28;20049;-86
2021/12/04 14:09:36;;;;;;;37.95;15.05;;;;;;;;;;4986891;28;20041;-87
2021/12/04 14:12:04;;;;;;;29.17;11.88;;;;;;;;;;4990113;28;20039;-87
2021/12/04 14:14:32;;;;;;;81.65;40.67;;;;;;;;;;4988270;28;20031;-87
2021/12/04 14:17:11;;;;;;;32.90;14.88;;;;;;;;;;4987951;28;20503;-85
2021/12/04 14:19:39;;;;;;;30.73;12.52;;;;;;;;;;4991516;28;20045;-86
2021/12/04 14:22:08;;;;;;;28.58;11.55;;;;;;;;;;4995149;28;20025;-86
2021/12/04 14:24:37;;;;;;;28.65;12.73;;;;;;;;;;4993073;28;20041;-86
2021/12/04 14:27:04;;;;;;;25.70;11.85;;;;;;;;;;4994541;28;20455;-83
2021/12/04 14:29:37;;;;;;;28.30;12.27;;;;;;;;;;5011500;28;20037;-85
2021/12/04 14:32:05;;;;;;;27.05;11.50;;;;;;;;;;5012266;28;20435;-87
2021/12/04 14:34:32;;;;;;;26.67;11.80;;;;;;;;;;5010638;28;20041;-84
2021/12/04 14:37:12;;;;;;;22.13;10.18;;;;;;;;;;5016010;28;20042;-84
2021/12/04 14:39:40;;;;;;;24.02;9.88;;;;;;;;;;5017124;28;20046;-87
2021/12/04 14:42:14;;;;;;;21.40;11.02;;;;;;;;;;5010367;28;20046;-83
2021/12/04 14:44:46;;;;;;;21.80;10.52;;;;;;;;;;5013190;28;20030;-87
2021/12/04 14:47:11;;;;;;;;;;;;;;;;;;5010365;28;20026;-82
2021/12/04 14:49:40;;;;;;;26.17;11.00;;;;;;;;;;5011044;28;19922;-85
2021/12/04 14:52:07;;;;;;;22.88;10.68;;;;;;;;;;5018812;28;20460;-85
2021/12/04 14:54:35;;;;;;;19.23;9.77;;;;;;;;;;5016245;28;20038;-84
2021/12/04 14:57:11;;;;;;;25.50;10.27;;;;;;;;;;5014988;28;20029;-86
2021/12/04 14:59:37;;;;;;;18.35;8.73;;;;;;;;;;5032580;28;20029;-85
2021/12/04 15:02:16;;;;;;;18.65;9.68;;;;;;;;;;5016919;28;20452;-85
2021/12/04 15:04:42;;;;;;;18.35;9.75;;;;;;;;;;5012378;28;20033;-81
2021/12/04 15:07:23;;;;;;;19.17;9.05;;;;;;;;;;5020912;28;20030;-82
2021/12/04 15:09:50;;;;;;;22.33;9.07;;;;;;;;;;5000579;28;20029;-81
2021/12/04 15:12:31;;;;;;;23.50;11.30;;;;;;;;;;5013843;28;20049;-82
2021/12/04 15:15:02;;;;;;;23.50;11.55;;;;;;;;;;5017335;28;20045;-83
2021/12/04 15:17:30;;;;;;;25.80;12.20;;;;;;;;;;5017041;28;20045;-81
2021/12/04 15:20:02;;;;;;;22.52;11.45;;;;;;;;;;5031757;28;20030;-85
2021/12/04 15:22:37;;;;;;;22.95;11.68;;;;;;;;;;5026229;28;20268;-80
2021/12/04 15:25:16;;;;;;;22.30;10.75;;;;;;;;;;5031150;28;20068;-81
2021/12/04 15:27:42;;;;;;;24.40;10.32;;;;;;;;;;5024624;28;20060;-83
2021/12/04 15:30:14;;;;;;;20.63;9.93;;;;;;;;;;5010729;28;20042;-82
2021/12/04 15:32:42;;;;;;;19.27;10.10;;;;;;;;;;5011498;28;20025;-81
2021/12/04 15:35:34;;;;;;;21.55;9.93;;;;;;;;;;5013879;28;20388;-82
2021/12/04 15:38:11;;;;;;;20.52;9.73;;;;;;;;;;5026715;28;20037;-84
2021/12/04 15:40:53;;;;;;;23.70;9.93;;;;;;;;;;5015173;28;20053;-84
2021/12/04 15:43:29;;;;;;;21.00;10.45;;;;;;;;;;5014202;28;20033;-86
2021/12/04 15:46:32;;;;;;;23.60;10.45;;;;;;;;;;5015508;28;20037;-83
2021/12/04 15:54:23;;;;;;;18.13;9.30;;;;;;;;;;5011427;28;20050;-86
2021/12/04 15:56:53;;;;;;;19.45;9.63;;;;;;;;;;5004955;28;20038;-88
2021/12/04 15:59:25;;;;;;;20.50;10.23;;;;;;;;;;5010031;28;20033;-88
2021/12/04 16:01:53;;;;;;;17.45;8.07;;;;;;;;;;5014388;28;20428;-85
2021/12/04 16:04:24;;;;;;;23.08;11.07;;;;;;;;;;5015770;28;20064;-85
2021/12/04 16:06:51;;;;;;;30.75;11.07;;;;;;;;;;5011843;28;20034;-86
2021/12/04 16:09:33;;;;;;;25.20;11.43;;;;;;;;;;5004654;28;20030;-83
2021/12/04 16:12:02;;;;;;;25.02;11.77;;;;;;;;;;5010353;28;20038;-84
2021/12/04 16:14:33;;;;;;;23.88;10.93;;;;;;;;;;5012316;28;20499;-80
2021/12/04 16:17:01;;;;;;;25.27;10.88;;;;;;;;;;5006151;28;20048;-80
2021/12/04 16:19:29;;;;;;;25.92;9.80;;;;;;;;;;5011908;28;20295;-80
2021/12/04 16:21:59;;;;;;;25.38;10.15;;;;;;;;;;5009183;28;20046;-85
2021/12/04 16:24:26;;;;;;;21.97;11.10;;;;;;;;;;5006777;28;20064;-84
2021/12/04 16:26:59;;;;;;;19.02;9.05;;;;;;;;;;5008098;28;20034;-84
2021/12/04 16:29:26;;;;;;;16.05;8.70;;;;;;;;;;5010611;28;20046;-83
2021/12/04 16:32:17;;;;;;;14.70;7.47;;;;;;;;;;5008833;28;20045;-82
2021/12/04 16:40:33;;;;;;;14.93;6.65;;;;;;;;;;5010924;28;20049;-85
2021/12/04 16:43:08;;;;;;;12.13;6.22;;;;;;;;;;5024270;28;20564;-80
2021/12/04 16:45:36;;;;;;;13.75;6.28;;;;;;;;;;5015394;28;20052;-80
2021/12/04 16:48:06;;;;;;;13.43;6.82;;;;;;;;;;5013891;28;20037;-79
2021/12/04 16:56:37;;;;;;;12.98;6.03;;;;;;;;;;5016005;28;20022;-83
2021/12/04 16:59:07;;;;;;;12.13;6.15;;;;;;;;;;5016157;28;20045;-80
2021/12/04 17:01:37;;;;;;;12.90;6.45;;;;;;;;;;5021277;28;20045;-81
2021/12/04 17:04:04;;;;;;;14.52;7.38;;;;;;;;;;5011592;28;20030;-80
2021/12/04 17:06:31;;;;;;;14.10;7.10;;;;;;;;;;5016061;28;20053;-79
2021/12/04 17:08:57;;;;;;;15.75;7.40;;;;;;;;;;5028800;28;20081;-80
2021/12/04 17:11:23;;;;;;;14.35;7.32;;;;;;;;;;5015702;28;20147;-80
2021/12/04 17:13:49;;;;;;;13.23;6.93;;;;;;;;;;5011980;28;20038;-83
2021/12/04 17:16:15;;;;;;;12.38;6.63;;;;;;;;;;5014688;28;20045;-83
2021/12/04 17:18:50;;;;;;;13.68;7.45;;;;;;;;;;5011955;28;20026;-83
2021/12/04 17:21:16;;;;;;;13.00;6.07;;;;;;;;;;5015054;28;20045;-83
2021/12/04 17:23:42;;;;;;;15.85;7.07;;;;;;;;;;5015070;28;20026;-83
2021/12/04 17:26:08;;;;;;;13.70;7.40;;;;;;;;;;5015070;28;20068;-83
2021/12/04 17:28:36;;;;;;;13.80;7.55;;;;;;;;;;5014535;28;20037;-83
2021/12/04 17:31:03;;;;;;;15.98;8.43;;;;;;;;;;5014310;28;20122;-83
2021/12/04 17:33:30;;;;;;;13.63;7.40;;;;;;;;;;5014378;28;20041;-83
2021/12/04 17:35:56;;;;;;;20.42;10.25;;;;;;;;;;5012503;28;20046;-83
2021/12/04 17:38:22;;;;;;;17.95;9.55;;;;;;;;;;5012500;28;20037;-82
2021/12/04 17:40:48;;;;;;;19.13;10.73;;;;;;;;;;5013403;28;20357;-82
2021/12/04 17:43:14;;;;;;;13.30;7.15;;;;;;;;;;5012971;28;20033;-82
2021/12/04 17:45:42;;;;;;;14.15;7.05;;;;;;;;;;4995738;28;20053;-82
2021/12/04 17:48:09;;;;;;;14.80;7.43;;;;;;;;;;5013421;28;20468;-82
2021/12/04 17:50:44;;;;;;;15.20;7.78;;;;;;;;;;5013339;28;20069;-82
2021/12/04 17:53:11;;;;;;;19.92;11.55;;;;;;;;;;5013677;28;20042;-83
2021/12/04 17:55:38;;;;;;;22.83;11.25;;;;;;;;;;5012807;28;20045;-82
2021/12/04 17:58:04;;;;;;;32.90;17.90;;;;;;;;;;5012867;28;20412;-84
2021/12/04 18:00:38;;;;;;;38.25;18.02;;;;;;;;;;5011259;28;20038;-82
2021/12/04 18:03:06;;;;;;;14.10;7.88;;;;;;;;;;5012704;28;20056;-83
2021/12/04 18:05:33;;;;;;;32.30;15.93;;;;;;;;;;5011984;28;20042;-83